| Back to River Map | Start of River Group | | | Next Forecast Point >>> | Printer Version | Graph Version |  |
|
SMITH RIVER - JEDEDIAH SMITH SP NEAR CRESCENT CITY (CREC1)
| Latitude: 41.79º N | Longitude: 124.08º W | Elevation: 79 Feet | | Forecast Type: Official Location |
| Location: Del Norte County in California | Bulletin Group: North Coast | River Group: North Coast |
| Issuance Time: | Aug 30 2026 at 7:12 AM PDT | Next Issuance: | Aug 31 2026 at 9:00 AM PDT
| |
| Action/Monitor: 25.0 Feet | Minor Flood: 29.0 Feet | Moderate Flood: 34.0 Feet | Major Flood: 37.0 Feet |
# Tabular Observed and Forecast Hydrograph Information
#
# Location: Smith River - Jedediah Smith SP (CREC1)
#
# File Generation Time: 08/30/2026 at 07:12 AM PDT
# Data Interval: 1 Hour
#
# Most Recent Date & Time of Maximum Observed: 08/29/2026 at 08:00 PM PDT
# Maximum Observed Stage: 4.35 Feet
# Maximum Observed Flow: 221 cfs
#
# Earliest Date & Time of Maximum Forecast: 09/03/2026 at 04:00 PM PDT
# Maximum Forecast Stage: 5.26 Feet
# Maximum Forecast Flow: 630 cfs
#
# OBSERVED
#
# Date & Time (Local) Stage (Feet) Flow (cfs) Trend Observed Status
# ---------------------------------------------------------------------------------
08/25/2026 07 AM PDT 4.32 210 Normal
08/25/2026 08 AM PDT 4.32 210 0 Normal
08/25/2026 09 AM PDT 4.32 210 0 Normal
08/25/2026 10 AM PDT 4.31 207 - Normal
08/25/2026 11 AM PDT 4.31 207 0 Normal
08/25/2026 12 PM PDT 4.32 210 + Normal
08/25/2026 01 PM PDT 4.32 210 0 Normal
08/25/2026 02 PM PDT 4.32 210 0 Normal
08/25/2026 03 PM PDT 4.32 210 0 Normal
08/25/2026 04 PM PDT 4.32 210 0 Normal
08/25/2026 05 PM PDT 4.32 210 0 Normal
08/25/2026 06 PM PDT 4.32 210 0 Normal
08/25/2026 07 PM PDT 4.32 210 0 Normal
08/25/2026 08 PM PDT 4.32 210 0 Normal
08/25/2026 09 PM PDT 4.32 210 0 Normal
08/25/2026 10 PM PDT 4.32 210 0 Normal
08/25/2026 11 PM PDT 4.32 210 0 Normal
08/26/2026 12 AM PDT 4.32 210 0 Normal
08/26/2026 01 AM PDT 4.32 210 0 Normal
08/26/2026 02 AM PDT 4.32 210 0 Normal
08/26/2026 03 AM PDT 4.32 210 0 Normal
08/26/2026 04 AM PDT 4.32 210 0 Normal
08/26/2026 05 AM PDT 4.31 207 - Normal
08/26/2026 06 AM PDT 4.32 210 + Normal
08/26/2026 07 AM PDT 4.31 207 - Normal
08/26/2026 08 AM PDT 4.32 210 + Normal
08/26/2026 09 AM PDT 4.31 207 - Normal
08/26/2026 10 AM PDT 4.31 207 0 Normal
08/26/2026 11 AM PDT 4.32 210 + Normal
08/26/2026 12 PM PDT 4.32 210 0 Normal
08/26/2026 01 PM PDT 4.32 210 0 Normal
08/26/2026 02 PM PDT 4.32 210 0 Normal
08/26/2026 03 PM PDT 4.32 210 0 Normal
08/26/2026 04 PM PDT 4.35 221 + Normal
08/26/2026 05 PM PDT 4.35 221 0 Normal
08/26/2026 06 PM PDT 4.34 217 - Normal
08/26/2026 07 PM PDT 4.34 217 0 Normal
08/26/2026 08 PM PDT 4.34 217 0 Normal
08/26/2026 09 PM PDT 4.34 217 0 Normal
08/26/2026 10 PM PDT 4.35 221 + Normal
08/26/2026 11 PM PDT 4.35 221 0 Normal
08/27/2026 12 AM PDT 4.34 217 - Normal
08/27/2026 01 AM PDT 4.34 217 0 Normal
08/27/2026 02 AM PDT 4.34 217 0 Normal
08/27/2026 03 AM PDT 4.34 217 0 Normal
08/27/2026 04 AM PDT 4.34 217 0 Normal
08/27/2026 05 AM PDT 4.34 217 0 Normal
08/27/2026 06 AM PDT 4.34 217 0 Normal
08/27/2026 07 AM PDT 4.34 217 0 Normal
08/27/2026 08 AM PDT 4.34 217 0 Normal
08/27/2026 09 AM PDT 4.33 214 - Normal
08/27/2026 10 AM PDT 4.34 217 + Normal
08/27/2026 11 AM PDT 4.34 217 0 Normal
08/27/2026 12 PM PDT 4.34 217 0 Normal
08/27/2026 01 PM PDT 4.34 217 0 Normal
08/27/2026 02 PM PDT 4.35 221 + Normal
08/27/2026 03 PM PDT 4.35 221 0 Normal
08/27/2026 04 PM PDT 4.35 221 0 Normal
08/27/2026 05 PM PDT 4.34 217 - Normal
08/27/2026 06 PM PDT 4.34 217 0 Normal
08/27/2026 07 PM PDT 4.35 221 + Normal
08/27/2026 08 PM PDT 4.34 217 - Normal
08/27/2026 09 PM PDT 4.34 217 0 Normal
08/27/2026 10 PM PDT 4.35 221 + Normal
08/27/2026 11 PM PDT 4.34 217 - Normal
08/28/2026 12 AM PDT 4.34 217 0 Normal
08/28/2026 01 AM PDT 4.34 217 0 Normal
08/28/2026 02 AM PDT 4.34 217 0 Normal
08/28/2026 03 AM PDT 4.34 217 0 Normal
08/28/2026 04 AM PDT 4.34 217 0 Normal
08/28/2026 05 AM PDT 4.34 217 0 Normal
08/28/2026 06 AM PDT 4.34 217 0 Normal
08/28/2026 07 AM PDT 4.34 217 0 Normal
08/28/2026 08 AM PDT 4.34 217 0 Normal
08/28/2026 09 AM PDT 4.34 217 0 Normal
08/28/2026 10 AM PDT 4.34 217 0 Normal
08/28/2026 11 AM PDT 4.34 217 0 Normal
08/28/2026 12 PM PDT 4.35 221 + Normal
08/28/2026 01 PM PDT 4.34 217 - Normal
08/28/2026 02 PM PDT 4.34 217 0 Normal
08/28/2026 03 PM PDT 4.34 217 0 Normal
08/28/2026 04 PM PDT 4.35 221 + Normal
08/28/2026 05 PM PDT 4.34 217 - Normal
08/28/2026 06 PM PDT 4.35 221 + Normal
08/28/2026 07 PM PDT 4.35 221 0 Normal
08/28/2026 08 PM PDT 4.35 221 0 Normal
08/28/2026 09 PM PDT 4.35 221 0 Normal
08/28/2026 10 PM PDT 4.35 221 0 Normal
08/28/2026 11 PM PDT 4.35 221 0 Normal
08/29/2026 12 AM PDT 4.35 221 0 Normal
08/29/2026 01 AM PDT 4.35 221 0 Normal
08/29/2026 02 AM PDT 4.35 221 0 Normal
08/29/2026 03 AM PDT 4.35 221 0 Normal
08/29/2026 04 AM PDT 4.35 221 0 Normal
08/29/2026 05 AM PDT 4.35 221 0 Normal
08/29/2026 06 AM PDT 4.35 221 0 Normal
08/29/2026 07 AM PDT 4.35 221 0 Normal
08/29/2026 08 AM PDT 4.35 221 0 Normal
08/29/2026 09 AM PDT 4.35 221 0 Normal
08/29/2026 10 AM PDT 4.35 221 0 Normal
08/29/2026 11 AM PDT 4.35 221 0 Normal
08/29/2026 12 PM PDT 4.35 221 0 Normal
08/29/2026 01 PM PDT 4.35 221 0 Normal
08/29/2026 02 PM PDT 4.35 221 0 Normal
08/29/2026 03 PM PDT 4.35 221 0 Normal
08/29/2026 04 PM PDT 4.35 221 0 Normal
08/29/2026 05 PM PDT 4.35 221 0 Normal
08/29/2026 06 PM PDT 4.35 221 0 Normal
08/29/2026 07 PM PDT 4.34 217 - Normal
08/29/2026 08 PM PDT 4.35 221 + Normal
08/29/2026 09 PM PDT 4.34 217 - Normal
08/29/2026 10 PM PDT 4.34 217 0 Normal
08/29/2026 11 PM PDT 4.34 217 0 Normal
08/30/2026 12 AM PDT 4.34 217 0 Normal
08/30/2026 01 AM PDT 4.34 217 0 Normal
08/30/2026 02 AM PDT 4.34 217 0 Normal
08/30/2026 03 AM PDT 4.34 217 0 Normal
08/30/2026 04 AM PDT 4.33 214 - Normal
08/30/2026 05 AM PDT 4.33 214 0 Normal
08/30/2026 06 AM PDT 4.33 214 0 Normal
08/30/2026 07 AM PDT 4.33 214 0 Normal
#
# FORECAST
#
# Date & Time (Local) Stage (Feet) Flow (cfs) Trend Forecast Status
# ---------------------------------------------------------------------------------
08/30/2026 08 AM PDT 4.33 214 Normal
08/30/2026 09 AM PDT 4.33 214 0 Normal
08/30/2026 10 AM PDT 4.33 214 0 Normal
08/30/2026 11 AM PDT 4.33 214 0 Normal
08/30/2026 12 PM PDT 4.33 214 0 Normal
08/30/2026 01 PM PDT 4.33 214 0 Normal
08/30/2026 02 PM PDT 4.33 214 0 Normal
08/30/2026 03 PM PDT 4.33 214 0 Normal
08/30/2026 04 PM PDT 4.33 214 0 Normal
08/30/2026 05 PM PDT 4.33 214 0 Normal
08/30/2026 06 PM PDT 4.33 214 0 Normal
08/30/2026 07 PM PDT 4.33 214 0 Normal
08/30/2026 08 PM PDT 4.33 214 0 Normal
08/30/2026 09 PM PDT 4.33 214 0 Normal
08/30/2026 10 PM PDT 4.33 214 0 Normal
08/30/2026 11 PM PDT 4.33 214 0 Normal
08/31/2026 12 AM PDT 4.33 214 0 Normal
08/31/2026 01 AM PDT 4.33 214 0 Normal
08/31/2026 02 AM PDT 4.33 214 0 Normal
08/31/2026 03 AM PDT 4.33 214 0 Normal
08/31/2026 04 AM PDT 4.33 214 0 Normal
08/31/2026 05 AM PDT 4.33 214 0 Normal
08/31/2026 06 AM PDT 4.33 214 0 Normal
08/31/2026 07 AM PDT 4.33 214 0 Normal
08/31/2026 08 AM PDT 4.33 214 0 Normal
08/31/2026 09 AM PDT 4.32 210 - Normal
08/31/2026 10 AM PDT 4.32 210 0 Normal
08/31/2026 11 AM PDT 4.32 210 0 Normal
08/31/2026 12 PM PDT 4.32 210 0 Normal
08/31/2026 01 PM PDT 4.32 210 0 Normal
08/31/2026 02 PM PDT 4.32 210 0 Normal
08/31/2026 03 PM PDT 4.32 210 0 Normal
08/31/2026 04 PM PDT 4.32 210 0 Normal
08/31/2026 05 PM PDT 4.32 210 0 Normal
08/31/2026 06 PM PDT 4.32 210 0 Normal
08/31/2026 07 PM PDT 4.32 210 0 Normal
08/31/2026 08 PM PDT 4.32 210 0 Normal
08/31/2026 09 PM PDT 4.32 210 0 Normal
08/31/2026 10 PM PDT 4.32 210 0 Normal
08/31/2026 11 PM PDT 4.32 210 0 Normal
09/01/2026 12 AM PDT 4.32 210 0 Normal
09/01/2026 01 AM PDT 4.32 210 0 Normal
09/01/2026 02 AM PDT 4.32 210 0 Normal
09/01/2026 03 AM PDT 4.32 210 0 Normal
09/01/2026 04 AM PDT 4.32 210 0 Normal
09/01/2026 05 AM PDT 4.32 210 0 Normal
09/01/2026 06 AM PDT 4.32 210 0 Normal
09/01/2026 07 AM PDT 4.32 210 0 Normal
09/01/2026 08 AM PDT 4.32 210 0 Normal
09/01/2026 09 AM PDT 4.32 210 0 Normal
09/01/2026 10 AM PDT 4.32 210 0 Normal
09/01/2026 11 AM PDT 4.32 210 0 Normal
09/01/2026 12 PM PDT 4.32 210 0 Normal
09/01/2026 01 PM PDT 4.32 210 0 Normal
09/01/2026 02 PM PDT 4.32 210 0 Normal
09/01/2026 03 PM PDT 4.32 210 0 Normal
09/01/2026 04 PM PDT 4.32 210 0 Normal
09/01/2026 05 PM PDT 4.32 210 0 Normal
09/01/2026 06 PM PDT 4.32 210 0 Normal
09/01/2026 07 PM PDT 4.32 210 0 Normal
09/01/2026 08 PM PDT 4.32 210 0 Normal
09/01/2026 09 PM PDT 4.32 210 0 Normal
09/01/2026 10 PM PDT 4.32 210 0 Normal
09/01/2026 11 PM PDT 4.33 214 + Normal
09/02/2026 12 AM PDT 4.33 214 0 Normal
09/02/2026 01 AM PDT 4.34 217 + Normal
09/02/2026 02 AM PDT 4.34 217 0 Normal
09/02/2026 03 AM PDT 4.35 221 + Normal
09/02/2026 04 AM PDT 4.36 224 + Normal
09/02/2026 05 AM PDT 4.36 224 0 Normal
09/02/2026 06 AM PDT 4.37 228 + Normal
09/02/2026 07 AM PDT 4.38 231 + Normal
09/02/2026 08 AM PDT 4.38 231 0 Normal
09/02/2026 09 AM PDT 4.39 234 + Normal
09/02/2026 10 AM PDT 4.39 234 0 Normal
09/02/2026 11 AM PDT 4.40 238 + Normal
09/02/2026 12 PM PDT 4.40 238 0 Normal
09/02/2026 01 PM PDT 4.40 238 0 Normal
09/02/2026 02 PM PDT 4.41 242 + Normal
09/02/2026 03 PM PDT 4.41 242 0 Normal
09/02/2026 04 PM PDT 4.42 245 + Normal
09/02/2026 05 PM PDT 4.42 245 0 Normal
09/02/2026 06 PM PDT 4.43 249 + Normal
09/02/2026 07 PM PDT 4.44 252 + Normal
09/02/2026 08 PM PDT 4.45 256 + Normal
09/02/2026 09 PM PDT 4.46 260 + Normal
09/02/2026 10 PM PDT 4.49 271 + Normal
09/02/2026 11 PM PDT 4.53 286 + Normal
09/03/2026 12 AM PDT 4.57 302 + Normal
09/03/2026 01 AM PDT 4.62 322 + Normal
09/03/2026 02 AM PDT 4.67 342 + Normal
09/03/2026 03 AM PDT 4.72 364 + Normal
09/03/2026 04 AM PDT 4.77 385 + Normal
09/03/2026 05 AM PDT 4.83 412 + Normal
09/03/2026 06 AM PDT 4.88 435 + Normal
09/03/2026 07 AM PDT 4.93 459 + Normal
09/03/2026 08 AM PDT 4.99 488 + Normal
09/03/2026 09 AM PDT 5.03 508 + Normal
09/03/2026 10 AM PDT 5.08 534 + Normal
09/03/2026 11 AM PDT 5.12 554 + Normal
09/03/2026 12 PM PDT 5.16 576 + Normal
09/03/2026 01 PM PDT 5.20 597 + Normal
09/03/2026 02 PM PDT 5.23 613 + Normal
09/03/2026 03 PM PDT 5.25 624 + Normal
09/03/2026 04 PM PDT 5.26 630 + Normal
09/03/2026 05 PM PDT 5.26 630 0 Normal
09/03/2026 06 PM PDT 5.25 624 - Normal
09/03/2026 07 PM PDT 5.23 613 - Normal
09/03/2026 08 PM PDT 5.21 602 - Normal
09/03/2026 09 PM PDT 5.18 586 - Normal
09/03/2026 10 PM PDT 5.16 576 - Normal
09/03/2026 11 PM PDT 5.13 560 - Normal
09/04/2026 12 AM PDT 5.11 549 - Normal
09/04/2026 01 AM PDT 5.08 534 - Normal
09/04/2026 02 AM PDT 5.06 523 - Normal
09/04/2026 03 AM PDT 5.04 513 - Normal
09/04/2026 04 AM PDT 5.01 498 - Normal
09/04/2026 05 AM PDT 4.99 488 - Normal
#
# NOTE 1: Stages are rounded to the nearest hundredth (.01) of a foot.
# NOTE 2: Flows are rounded to the nearest (1) cfs.
# NOTE 3: Trends are determined using hourly change in unrounded stage and flow.
# NOTE 4: Maximum Values are determined using unrounded stage and flow.
|